Time;durP1;ratioP1;P1;durP2;ratioP2;P2;SDS_P1;SDS_P2;PMS_P1;PMS_P2;Temp;Humidity;BMP_temperature;BMP_pressure;BME280_temperature;BME280_humidity;BME280_pressure;Samples;Min_cycle;Max_cycle;Signal;HPM_P1;HPM_P2
2022/01/09 00:00:16;;;;;;;;;4.40;2.60;;;;;6.42;100.00;99663.94;5079024;27;45220;-81
2022/01/09 00:02:43;;;;;;;;;4.00;1.00;;;;;6.45;100.00;99671.66;5078572;27;44863;-82
2022/01/09 00:05:10;;;;;;;;;3.50;1.50;;;;;6.43;100.00;99677.06;5078612;28;44836;-82
2022/01/09 00:07:35;;;;;;;;;4.50;2.00;;;;;6.41;100.00;99691.28;5078472;27;45645;-82
2022/01/09 00:10:01;;;;;;;;;5.75;1.00;;;;;6.38;100.00;99694.13;5075923;28;45204;-81
2022/01/09 00:12:27;;;;;;;;;7.25;2.25;;;;;6.36;100.00;99706.56;5076969;27;45377;-81
2022/01/09 00:14:53;;;;;;;;;10.00;7.50;;;;;6.33;100.00;99702.34;5078708;28;44822;-82
2022/01/09 00:17:19;;;;;;;;;4.80;2.80;;;;;6.34;100.00;99727.78;5080426;27;45332;-81
2022/01/09 00:19:44;;;;;;;;;7.00;3.50;;;;;6.31;100.00;99727.97;5081518;27;45308;-81
2022/01/09 00:22:09;;;;;;;;;2.00;0.50;;;;;6.30;100.00;99731.56;5078414;27;44725;-81
2022/01/09 00:24:35;;;;;;;;;9.75;3.25;;;;;6.29;100.00;99729.03;5078054;27;44957;-82
2022/01/09 00:27:00;;;;;;;;;9.75;3.25;;;;;6.26;100.00;99723.94;5078097;27;45266;-80
2022/01/09 00:29:26;;;;;;;;;3.00;1.75;;;;;6.26;100.00;99742.41;5079396;28;44906;-80
2022/01/09 00:31:51;;;;;;;;;8.50;2.00;;;;;6.24;100.00;99757.47;5081210;27;45368;-81
2022/01/09 00:34:16;;;;;;;;;4.25;0.50;;;;;6.20;100.00;99758.63;5081255;27;45308;-83
2022/01/09 00:36:42;;;;;;;;;15.50;5.00;;;;;6.14;100.00;99773.91;5080318;28;45748;-81
2022/01/09 00:39:07;;;;;;;;;4.25;2.75;;;;;6.14;100.00;99760.72;5082059;27;44740;-81
2022/01/09 00:41:33;;;;;;;;;3.00;3.00;;;;;6.12;100.00;99778.44;5082302;27;44969;-81
2022/01/09 00:43:59;;;;;;;;;7.75;3.00;;;;;6.08;100.00;99784.84;5082011;28;44945;-80
2022/01/09 00:46:25;;;;;;;;;6.25;1.00;;;;;6.06;100.00;99777.97;5083085;27;45193;-79
2022/01/09 00:48:50;;;;;;;;;10.00;5.25;;;;;6.02;100.00;99777.31;5078793;28;44702;-80
2022/01/09 00:51:15;;;;;;;;;4.75;1.00;;;;;6.05;100.00;99784.19;5080040;27;45181;-81
2022/01/09 00:53:41;;;;;;;;;3.00;2.50;;;;;6.02;100.00;99779.97;5076012;27;44920;-80
2022/01/09 00:56:06;;;;;;;;;10.00;1.25;;;;;6.01;100.00;99795.88;5076236;27;46960;-80
2022/01/09 00:58:31;;;;;;;;;4.00;2.00;;;;;5.98;100.00;99806.59;5077588;27;44860;-81
2022/01/09 01:00:58;;;;;;;;;2.75;1.00;;;;;5.96;100.00;99803.22;5076458;27;44970;-80
2022/01/09 01:03:23;;;;;;;;;4.50;1.00;;;;;5.98;100.00;99806.59;5078033;27;44837;-80
2022/01/09 01:05:48;;;;;;;;;3.00;0.50;;;;;5.97;100.00;99818.09;5075874;27;45389;-80
2022/01/09 01:08:14;;;;;;;;;2.25;1.00;;;;;5.97;100.00;99831.28;5077439;27;44746;-80
2022/01/09 01:10:39;;;;;;;;;3.00;1.75;;;;;5.97;100.00;99847.09;5075999;28;45039;-80
2022/01/09 01:13:05;;;;;;;;;3.00;1.00;;;;;5.98;100.00;99847.00;5077777;28;44744;-80
2022/01/09 01:15:30;;;;;;;;;2.50;2.00;;;;;6.02;100.00;99869.59;5082662;28;44998;-80
2022/01/09 01:17:57;;;;;;;;;3.50;2.00;;;;;5.98;100.00;99859.34;5081697;27;45325;-79
2022/01/09 01:20:23;;;;;;;;;5.00;2.20;;;;;5.94;100.00;99877.13;5077943;27;44721;-80
2022/01/09 01:22:52;;;;;;;;;4.50;2.00;;;;;5.85;100.00;99873.25;5076732;28;44895;-79
2022/01/09 01:25:21;;;;;;;;;2.00;1.25;;;;;5.82;100.00;99875.22;5076949;27;45510;-81
2022/01/09 01:27:47;;;;;;;;;2.60;2.00;;;;;5.75;100.00;99897.59;5077958;27;44879;-78
2022/01/09 01:30:13;;;;;;;;;5.60;1.80;;;;;5.73;100.00;99886.31;5080127;27;45529;-81
2022/01/09 01:32:40;;;;;;;;;4.50;1.25;;;;;5.68;100.00;99895.34;5078960;27;45446;-80
2022/01/09 01:35:06;;;;;;;;;6.50;2.00;;;;;5.64;100.00;99899.09;5078348;28;45433;-80
2022/01/09 01:37:32;;;;;;;;;3.20;0.00;;;;;5.63;100.00;99913.22;5079213;28;45371;-80
2022/01/09 01:39:57;;;;;;;;;1.00;1.00;;;;;5.61;100.00;99943.25;5058179;28;44752;-80
2022/01/09 01:42:23;;;;;;;;;3.00;3.00;;;;;5.61;100.00;99941.47;5057102;28;44912;-80
2022/01/09 01:44:50;;;;;;;;;5.75;2.00;;;;;5.61;100.00;99949.34;5057049;28;45229;-81
2022/01/09 01:47:18;;;;;;;;;0.60;0.20;;;;;5.60;100.00;99942.38;5064123;28;44810;-80
2022/01/09 01:49:43;;;;;;;;;3.20;1.00;;;;;5.57;100.00;99974.19;5057781;28;44713;-79
2022/01/09 01:52:09;;;;;;;;;9.50;1.50;;;;;5.58;100.00;99982.94;5056230;28;45171;-80
2022/01/09 01:54:35;;;;;;;;;10.50;3.75;;;;;5.58;100.00;99985.56;5054817;28;45265;-81
2022/01/09 01:57:02;;;;;;;;;3.50;3.50;;;;;5.56;100.00;99988.31;5055949;28;45374;-81
2022/01/09 01:59:28;;;;;;;;;2.20;1.80;;;;;5.58;100.00;99980.31;5056562;28;45224;-81
2022/01/09 02:01:53;;;;;;;;;4.75;2.75;;;;;5.60;100.00;100000.34;5056442;28;44879;-80
2022/01/09 02:04:18;;;;;;;;;4.50;2.00;;;;;5.62;100.00;100008.16;5056235;28;45579;-80
2022/01/09 02:06:44;;;;;;;;;2.75;2.75;;;;;5.63;100.00;99994.91;5056422;28;44694;-79
2022/01/09 02:09:10;;;;;;;;;2.20;1.00;;;;;5.64;100.00;99993.94;5056357;28;44745;-81
2022/01/09 02:11:37;;;;;;;;;2.00;2.00;;;;;5.62;100.00;100003.75;5055077;28;45331;-80
2022/01/09 02:14:02;;;;;;;;;1.00;0.80;;;;;5.57;100.00;99983.88;5056223;28;45418;-81
2022/01/09 02:16:28;;;;;;;;;0.50;0.50;;;;;5.55;100.00;99986.56;5056922;28;44872;-79
2022/01/09 02:18:57;;;;;;;;;2.80;2.00;;;;;5.51;100.00;100045.69;5062639;28;44800;-79
2022/01/09 02:21:23;;;;;;;;;1.00;1.00;;;;;5.43;100.00;100020.72;5065278;28;44780;-80
2022/01/09 02:23:49;;;;;;;;;2.75;1.50;;;;;5.41;100.00;100018.13;5065301;28;45195;-80
2022/01/09 02:26:19;;;;;;;;;3.00;1.75;;;;;5.41;100.00;100023.41;5065795;28;44746;-81
2022/01/09 02:28:48;;;;;;;;;4.00;2.00;;;;;5.39;100.00;100028.78;5064451;28;44787;-80
2022/01/09 02:31:14;;;;;;;;;2.00;1.50;;;;;5.39;100.00;100017.38;5066781;28;45193;-79
2022/01/09 02:33:40;;;;;;;;;2.00;1.00;;;;;5.40;100.00;100024.34;5065748;28;45039;-80
2022/01/09 02:36:06;;;;;;;;;3.50;0.75;;;;;5.43;100.00;100016.28;5058978;28;44842;-79
2022/01/09 02:38:31;;;;;;;;;1.00;1.00;;;;;5.46;100.00;100026.63;5064044;28;45445;-81
2022/01/09 02:40:57;;;;;;;;;0.50;0.00;;;;;5.44;100.00;100025.03;5058936;28;45418;-80
2022/01/09 02:43:23;;;;;;;;;1.00;0.00;;;;;5.45;100.00;100024.94;5058893;28;45106;-81
2022/01/09 02:45:55;;;;;;;;;1.20;1.20;;;;;5.43;100.00;100024.19;5055968;28;45306;-81
2022/01/09 02:48:21;;;;;;;;;0.00;0.00;;;;;5.45;100.00;100048.63;5056249;28;44906;-80
2022/01/09 02:51:08;;;;;;;;;0.75;0.75;;;;;5.44;100.00;100060.13;5059658;28;44873;-81
2022/01/09 02:53:35;;;;;;;;;2.00;1.00;;;;;5.33;100.00;100059.88;5057480;28;45090;-80
2022/01/09 02:56:05;;;;;;;;;0.00;0.00;;;;;5.28;100.00;100068.03;5055769;28;45439;-81
2022/01/09 02:58:32;;;;;;;;;0.00;0.00;;;;;5.22;100.00;100064.88;5055519;28;44835;-80
2022/01/09 03:00:58;;;;;;;;;0.00;0.00;;;;;5.16;100.00;100055.53;5055577;28;45359;-80
2022/01/09 03:03:23;;;;;;;;;1.75;0.00;;;;;5.13;100.00;100061.84;5055727;28;45026;-81
2022/01/09 03:05:49;;;;;;;;;1.00;0.25;;;;;5.10;100.00;100067.25;5055276;28;44871;-80
2022/01/09 03:08:15;;;;;;;;;0.00;0.00;;;;;5.11;100.00;100070.75;5054596;28;44816;-80
2022/01/09 03:10:40;;;;;;;;;2.00;1.00;;;;;5.12;100.00;100077.69;5056666;28;45355;-80
2022/01/09 03:13:07;;;;;;;;;2.00;0.75;;;;;5.15;100.00;100078.38;5056247;28;45277;-80
2022/01/09 03:15:33;;;;;;;;;0.20;0.20;;;;;5.18;100.00;100072.13;5056666;28;45220;-80
2022/01/09 03:17:58;;;;;;;;;3.00;0.00;;;;;5.21;100.00;100085.09;5056382;28;44748;-81
2022/01/09 03:20:25;;;;;;;;;0.00;0.00;;;;;5.22;100.00;100084.19;5055517;28;45537;-81
2022/01/09 03:22:51;;;;;;;;;3.25;1.00;;;;;5.25;100.00;100086.63;5059446;28;45446;-80
2022/01/09 03:25:17;;;;;;;;;4.75;1.75;;;;;5.25;100.00;100089.25;5061930;28;44860;-80
2022/01/09 03:27:51;;;;;;;;;1.00;1.00;;;;;5.29;100.00;100097.84;5056223;28;45454;-80
2022/01/09 03:30:18;;;;;;;;;1.00;0.25;;;;;5.33;100.00;100096.75;5056158;28;45396;-80
2022/01/09 03:32:45;;;;;;;;;1.25;1.25;;;;;5.34;100.00;100072.94;5055528;28;45106;-80
2022/01/09 03:35:16;;;;;;;;;6.60;1.80;;;;;5.43;100.00;100081.28;5056061;28;44810;-81
2022/01/09 03:37:43;;;;;;;;;0.80;0.80;;;;;5.43;100.00;100092.66;5056511;28;44842;-80
2022/01/09 03:40:12;;;;;;;;;3.00;0.50;;;;;5.43;100.00;100100.56;5056724;28;44936;-80
2022/01/09 03:42:37;;;;;;;;;2.00;0.25;;;;;5.45;100.00;100096.06;5059553;28;45256;-80
2022/01/09 03:45:05;;;;;;;;;1.00;0.00;;;;;5.43;100.00;100132.19;5060982;28;44862;-80
2022/01/09 03:47:32;;;;;;;;;2.40;0.20;;;;;5.40;100.00;100134.97;5063086;28;45401;-80
2022/01/09 03:49:57;;;;;;;;;0.00;0.00;;;;;5.33;100.00;100139.75;5058865;28;44813;-81
2022/01/09 03:52:27;;;;;;;;;9.50;1.00;;;;;5.28;100.00;100149.69;5059903;28;45423;-80
2022/01/09 03:54:55;;;;;;;;;1.60;1.00;;;;;5.23;100.00;100146.44;5059858;28;45299;-79
2022/01/09 03:57:21;;;;;;;;;4.00;0.00;;;;;5.19;100.00;100138.78;5065559;28;44809;-81
2022/01/09 03:59:47;;;;;;;;;3.75;1.00;;;;;5.16;100.00;100145.06;5062677;28;44971;-81
2022/01/09 04:02:13;;;;;;;;;3.25;1.00;;;;;5.14;100.00;100139.03;5058829;28;46178;-81
2022/01/09 04:04:38;;;;;;;;;7.00;1.75;;;;;5.13;100.00;100153.13;5059378;28;45439;-81
2022/01/09 04:07:04;;;;;;;;;1.75;1.00;;;;;5.09;100.00;100148.97;5059243;28;45032;-81
2022/01/09 04:09:40;;;;;;;;;2.75;1.25;;;;;5.10;100.00;100145.41;5058716;28;45027;-81
2022/01/09 04:12:31;;;;;;;;;2.00;0.00;;;;;5.11;100.00;100137.41;5058051;28;47085;-83
2022/01/09 04:15:00;;;;;;;;;1.00;0.00;;;;;5.09;100.00;100126.13;5058730;28;44783;-82
2022/01/09 04:20:10;;;;;;;;;3.00;1.50;;;;;5.05;100.00;100135.13;5059272;28;45300;-82
2022/01/09 04:22:36;;;;;;;;;0.00;0.00;;;;;5.03;100.00;100126.47;5058208;28;47061;-83
2022/01/09 04:25:02;;;;;;;;;2.20;2.20;;;;;5.01;100.00;100130.94;5060222;28;45332;-81
2022/01/09 04:27:28;;;;;;;;;4.80;0.00;;;;;5.00;100.00;100139.78;5060477;28;44692;-82
2022/01/09 04:29:53;;;;;;;;;1.75;1.50;;;;;4.99;100.00;100145.97;5061044;28;44869;-82
2022/01/09 04:32:18;;;;;;;;;4.75;1.00;;;;;4.99;100.00;100153.88;5064913;28;45217;-82
2022/01/09 04:34:44;;;;;;;;;2.50;1.25;;;;;5.01;100.00;100144.09;5060162;28;45330;-81
2022/01/09 04:37:09;;;;;;;;;2.00;0.50;;;;;5.05;100.00;100145.66;5058189;28;44805;-83
2022/01/09 04:39:34;;;;;;;;;1.00;0.00;;;;;5.04;100.00;100146.59;5059590;28;44840;-85
2022/01/09 04:42:00;;;;;;;;;1.00;0.00;;;;;5.07;100.00;100142.91;5059765;28;45495;-83
2022/01/09 04:44:25;;;;;;;;;4.50;1.75;;;;;5.07;100.00;100141.13;5060006;28;44742;-83
2022/01/09 04:47:06;;;;;;;;;2.00;0.75;;;;;5.04;100.00;100141.31;5065002;28;44842;-83
2022/01/09 04:49:37;;;;;;;;;1.00;1.00;;;;;5.03;100.00;100134.34;5065144;28;44745;-83
2022/01/09 04:52:06;;;;;;;;;0.50;0.50;;;;;5.05;100.00;100153.53;5060857;28;45171;-83
2022/01/09 04:54:31;;;;;;;;;0.20;0.00;;;;;5.06;100.00;100159.66;5057522;28;44785;-83
2022/01/09 04:56:56;;;;;;;;;2.25;1.00;;;;;5.04;100.00;100165.00;5057854;28;44850;-83
2022/01/09 04:59:22;;;;;;;;;0.50;0.25;;;;;5.03;100.00;100158.06;5058733;28;45494;-83
2022/01/09 05:01:47;;;;;;;;;0.75;0.75;;;;;5.03;100.00;100151.91;5058742;28;45412;-84
2022/01/09 05:04:13;;;;;;;;;1.50;0.00;;;;;5.03;100.00;100162.44;5060688;28;44791;-82
2022/01/09 05:06:38;;;;;;;;;2.00;0.00;;;;;5.00;100.00;100160.84;5066608;28;44824;-83
2022/01/09 05:09:04;;;;;;;;;4.25;1.00;;;;;4.99;100.00;100167.03;5059101;28;44976;-83
2022/01/09 05:11:30;;;;;;;;;1.20;0.00;;;;;4.94;100.00;100166.44;5057105;28;46526;-82
2022/01/09 05:13:56;;;;;;;;;2.00;0.00;;;;;4.92;100.00;100167.44;5058166;28;45465;-83
2022/01/09 05:16:21;;;;;;;;;3.50;1.25;;;;;4.89;100.00;100181.63;5058104;28;44790;-83
2022/01/09 05:18:57;;;;;;;;;1.50;0.00;;;;;4.81;100.00;100183.78;5058565;28;45351;-81
2022/01/09 05:21:23;;;;;;;;;1.50;0.00;;;;;4.77;100.00;100169.94;5056842;28;45398;-83
2022/01/09 05:23:49;;;;;;;;;1.25;0.00;;;;;4.74;100.00;100163.97;5056597;28;45295;-83
2022/01/09 05:26:15;;;;;;;;;1.00;1.00;;;;;4.71;100.00;100167.63;5058360;28;44809;-82
2022/01/09 05:28:40;;;;;;;;;0.50;0.00;;;;;4.67;100.00;100170.50;5058926;28;45401;-84
2022/01/09 05:31:06;;;;;;;;;3.00;1.00;;;;;4.69;100.00;100158.97;5058088;28;45343;-82
2022/01/09 05:33:31;;;;;;;;;2.75;1.00;;;;;4.70;100.00;100162.44;5058067;28;44729;-82
2022/01/09 05:35:57;;;;;;;;;2.00;0.00;;;;;4.72;100.00;100155.31;5059049;28;44698;-82
2022/01/09 05:38:22;;;;;;;;;2.25;1.50;;;;;4.71;100.00;100161.53;5059016;28;44800;-82
2022/01/09 05:40:47;;;;;;;;;1.75;0.50;;;;;4.67;100.00;100157.34;5065093;28;46371;-84
2022/01/09 05:43:14;;;;;;;;;3.25;2.00;;;;;4.67;100.00;100155.56;5059942;28;44749;-83
2022/01/09 05:45:40;;;;;;;;;3.00;1.25;;;;;4.67;100.00;100154.72;5057749;28;44742;-85
2022/01/09 05:48:07;;;;;;;;;2.50;1.00;;;;;4.64;100.00;100153.06;5058795;28;45454;-82
2022/01/09 05:50:34;;;;;;;;;2.75;0.50;;;;;4.65;100.00;100157.44;5063598;28;45220;-83
2022/01/09 05:52:59;;;;;;;;;4.00;1.00;;;;;4.64;100.00;100161.84;5061149;28;44738;-82
2022/01/09 05:55:25;;;;;;;;;1.00;1.00;;;;;4.63;100.00;100162.75;5059786;28;44784;-81
2022/01/09 05:57:50;;;;;;;;;2.75;1.00;;;;;4.60;100.00;100168.19;5064345;28;45343;-83
2022/01/09 06:00:16;;;;;;;;;1.75;0.50;;;;;4.58;100.00;100163.91;5061535;28;45311;-82
2022/01/09 06:02:42;;;;;;;;;4.25;0.25;;;;;4.56;100.00;100160.53;5058314;28;44891;-81
2022/01/09 06:05:08;;;;;;;;;2.50;2.00;;;;;4.55;100.00;100170.22;5056678;28;44764;-82
2022/01/09 06:07:37;;;;;;;;;3.00;1.00;;;;;4.58;100.00;100166.56;5056686;28;44810;-81
2022/01/09 06:10:03;;;;;;;;;2.75;1.75;;;;;4.58;100.00;100183.19;5056124;28;46575;-82
2022/01/09 06:12:28;;;;;;;;;4.00;1.50;;;;;4.56;100.00;100182.41;5060126;28;44799;-81
2022/01/09 06:14:54;;;;;;;;;3.25;1.00;;;;;4.59;100.00;100187.53;5064806;28;44758;-83
2022/01/09 06:17:20;;;;;;;;;1.00;1.00;;;;;4.61;100.00;100198.81;5063112;28;44888;-83
2022/01/09 06:19:45;;;;;;;;;2.00;1.00;;;;;4.64;100.00;100201.31;5057449;28;45328;-81
2022/01/09 06:22:11;;;;;;;;;5.75;2.00;;;;;4.66;100.00;100209.09;5056408;28;44814;-82
2022/01/09 06:24:36;;;;;;;;;4.00;1.00;;;;;4.72;100.00;100200.03;5056380;28;44876;-81
2022/01/09 06:27:02;;;;;;;;;2.75;0.25;;;;;4.77;100.00;100206.78;5056018;28;45390;-82
2022/01/09 06:29:27;;;;;;;;;0.75;0.00;;;;;4.84;100.00;100209.94;5055818;28;45140;-82
2022/01/09 06:31:52;;;;;;;;;0.50;0.00;;;;;4.88;100.00;100217.63;5057234;28;45340;-82
2022/01/09 06:34:18;;;;;;;;;2.00;0.00;;;;;4.93;100.00;100213.88;5056999;28;44714;-81
2022/01/09 06:36:43;;;;;;;;;1.00;0.00;;;;;4.94;100.00;100211.19;5059304;28;44850;-82
2022/01/09 06:39:09;;;;;;;;;4.50;2.75;;;;;4.97;100.00;100199.63;5069948;28;45373;-82
2022/01/09 06:41:34;;;;;;;;;2.00;0.00;;;;;4.96;100.00;100201.41;5077209;27;45264;-82
2022/01/09 06:44:00;;;;;;;;;2.00;1.00;;;;;4.92;100.00;100202.50;5076436;28;45173;-82
2022/01/09 06:46:26;;;;;;;;;2.00;0.25;;;;;4.93;100.00;100201.56;5077587;27;45098;-83
2022/01/09 06:48:52;;;;;;;;;1.60;0.00;;;;;4.94;100.00;100203.28;5076844;28;46852;-82
2022/01/09 06:51:17;;;;;;;;;3.00;1.00;;;;;4.93;100.00;100211.22;5080982;27;45227;-82
2022/01/09 06:53:42;;;;;;;;;2.00;0.50;;;;;4.93;100.00;100213.88;5081838;27;45319;-82
2022/01/09 06:56:08;;;;;;;;;1.00;1.00;;;;;4.95;100.00;100214.66;5081664;28;45309;-82
2022/01/09 06:58:36;;;;;;;;;4.00;2.00;;;;;4.92;100.00;100197.22;5078107;28;45356;-82
2022/01/09 07:01:05;;;;;;;;;1.80;1.00;;;;;4.95;100.00;100194.44;5077241;27;45291;-82
2022/01/09 07:03:31;;;;;;;;;3.00;1.20;;;;;4.87;100.00;100191.34;5076647;28;45631;-82
2022/01/09 07:05:56;;;;;;;;;0.00;0.00;;;;;4.92;100.00;100168.28;5076284;27;45426;-83
2022/01/09 07:08:22;;;;;;;;;0.25;0.00;;;;;4.92;100.00;100184.06;5077085;28;45046;-83
2022/01/09 07:10:47;;;;;;;;;0.00;0.00;;;;;4.95;100.00;100181.28;5075101;27;44866;-81
2022/01/09 07:13:14;;;;;;;;;0.25;0.25;;;;;4.96;100.00;100184.75;5076544;27;44836;-82
2022/01/09 07:15:39;;;;;;;;;3.00;1.00;;;;;4.98;100.00;100180.25;5072319;28;44744;-82
2022/01/09 07:18:06;;;;;;;;;0.25;0.25;;;;;5.00;100.00;100179.25;5056484;28;45356;-82
2022/01/09 07:20:31;;;;;;;;;1.00;1.00;;;;;4.98;100.00;100196.94;5079853;27;44872;-85
2022/01/09 07:22:57;;;;;;;;;1.00;1.00;;;;;4.94;100.00;100205.06;5082556;27;44689;-84
2022/01/09 07:25:22;;;;;;;;;0.50;0.00;;;;;4.93;100.00;100214.72;5084559;27;44850;-81
2022/01/09 07:27:49;;;;;;;;;2.25;0.25;;;;;4.86;100.00;100208.94;5083798;28;45064;-83
2022/01/09 07:30:14;;;;;;;;;0.60;0.60;;;;;4.83;100.00;100219.59;5059501;28;44797;-83
2022/01/09 07:32:40;;;;;;;;;1.00;0.75;;;;;4.81;100.00;100223.25;5060273;28;44679;-82
2022/01/09 07:35:06;;;;;;;;;3.00;1.00;;;;;4.82;100.00;100227.59;5059035;28;44845;-81
2022/01/09 07:37:32;;;;;;;;;1.50;0.00;;;;;4.76;100.00;100212.13;5060241;28;45394;-81
2022/01/09 07:39:59;;;;;;;;;3.00;0.50;;;;;4.78;100.00;100220.78;5060163;28;44734;-82
2022/01/09 07:42:24;;;;;;;;;1.25;0.50;;;;;4.75;100.00;100216.53;5059082;28;44750;-82
2022/01/09 07:44:50;;;;;;;;;0.50;0.50;;;;;4.75;100.00;100229.69;5072465;28;44839;-82
2022/01/09 07:47:15;;;;;;;;;1.00;0.75;;;;;4.77;100.00;100238.34;5066209;27;45410;-82
2022/01/09 07:49:41;;;;;;;;;2.00;1.00;;;;;4.81;100.00;100236.41;5059385;28;44755;-83
2022/01/09 07:52:06;;;;;;;;;1.50;1.00;;;;;4.86;100.00;100234.41;5062110;28;45201;-81
2022/01/09 07:54:32;;;;;;;;;2.00;0.00;;;;;4.90;100.00;100239.44;5062086;28;44790;-81
2022/01/09 07:56:57;;;;;;;;;3.25;1.00;;;;;4.92;100.00;100249.00;5065943;28;45206;-83
2022/01/09 07:59:22;;;;;;;;;2.00;1.00;;;;;4.93;100.00;100240.19;5068397;28;45150;-82
2022/01/09 08:01:49;;;;;;;;;1.75;1.75;;;;;4.94;100.00;100234.88;5067027;28;44768;-83
2022/01/09 08:04:14;;;;;;;;;2.00;1.00;;;;;5.00;100.00;100236.31;5062815;28;44903;-82
2022/01/09 08:06:40;;;;;;;;;1.00;0.25;;;;;5.06;100.00;100233.38;5062110;28;45375;-84
2022/01/09 08:09:05;;;;;;;;;2.25;1.50;;;;;5.05;100.00;100245.69;5060420;28;45379;-82
2022/01/09 08:11:31;;;;;;;;;4.00;1.00;;;;;5.04;100.00;100238.72;5059776;28;45403;-82
2022/01/09 08:13:56;;;;;;;;;1.00;1.00;;;;;5.06;100.00;100231.56;5061786;28;45455;-85
2022/01/09 08:16:21;;;;;;;;;2.00;1.00;;;;;5.09;100.00;100236.69;5066188;28;45163;-82
2022/01/09 08:18:47;;;;;;;;;2.00;1.00;;;;;5.12;100.00;100222.50;5067499;28;44791;-84
2022/01/09 08:21:12;;;;;;;;;1.50;1.50;;;;;5.13;100.00;100232.13;5062484;28;45072;-83
2022/01/09 08:23:38;;;;;;;;;3.00;1.00;;;;;5.12;100.00;100233.88;5060336;28;45485;-83
2022/01/09 08:26:03;;;;;;;;;2.00;1.00;;;;;5.14;100.00;100239.94;5058314;28;45428;-83
2022/01/09 08:28:28;;;;;;;;;4.50;1.00;;;;;5.16;100.00;100245.09;5073786;27;44856;-84
2022/01/09 08:30:54;;;;;;;;;3.00;3.00;;;;;5.10;100.00;100237.53;5079913;27;44886;-81
2022/01/09 08:33:24;;;;;;;;;0.75;0.75;;;;;5.09;100.00;100226.16;5081623;27;45389;-83
2022/01/09 08:35:49;;;;;;;;;2.00;1.00;;;;;5.12;100.00;100233.03;5083308;27;45184;-83
2022/01/09 08:38:15;;;;;;;;;0.75;0.75;;;;;5.15;100.00;100230.25;5067169;28;45235;-83
2022/01/09 08:40:40;;;;;;;;;4.00;1.25;;;;;5.22;100.00;100236.91;5063091;28;45640;-84
2022/01/09 08:43:06;;;;;;;;;5.50;2.00;;;;;5.29;100.00;100242.69;5062331;28;45327;-83
2022/01/09 08:45:31;;;;;;;;;1.00;1.00;;;;;5.26;100.00;100230.53;5059132;28;47257;-82
2022/01/09 08:47:56;;;;;;;;;2.50;1.25;;;;;5.27;100.00;100234.88;5078815;27;44825;-83
2022/01/09 08:50:23;;;;;;;;;2.00;0.00;;;;;5.25;100.00;100214.81;5080016;27;45403;-82
2022/01/09 08:52:48;;;;;;;;;3.00;1.50;;;;;5.21;100.00;100211.47;5078386;27;44923;-82
2022/01/09 08:55:14;;;;;;;;;0.75;0.75;;;;;5.19;100.00;100205.47;5079257;27;45099;-82
2022/01/09 08:57:39;;;;;;;;;1.50;0.50;;;;;5.19;100.00;100217.78;5078262;27;45397;-83
2022/01/09 09:00:06;;;;;;;;;1.00;0.00;;;;;5.07;100.00;100211.38;5085946;28;45306;-82
2022/01/09 09:02:31;;;;;;;;;2.00;1.00;;;;;5.04;100.00;100211.53;5085688;27;45585;-83
2022/01/09 09:04:57;;;;;;;;;1.00;0.00;;;;;5.04;100.00;100204.50;5081327;28;46741;-82
2022/01/09 09:07:24;;;;;;;;;2.25;1.00;;;;;5.12;100.00;100214.59;5079125;27;45262;-83
2022/01/09 09:09:51;;;;;;;;;0.20;0.00;;;;;5.15;100.00;100206.56;5079320;28;44841;-83
2022/01/09 09:12:17;;;;;;;;;0.50;0.00;;;;;5.17;100.00;100215.22;5079172;27;44855;-82
2022/01/09 09:14:42;;;;;;;;;0.00;0.00;;;;;5.26;100.00;100225.25;5082294;27;45300;-84
2022/01/09 09:17:08;;;;;;;;;0.50;0.50;;;;;5.36;100.00;100217.72;5082488;28;44744;-83
2022/01/09 09:19:33;;;;;;;;;1.75;0.50;;;;;5.45;100.00;100222.50;5083031;27;45425;-83
2022/01/09 09:21:59;;;;;;;;;1.00;0.25;;;;;5.53;100.00;100228.19;5081249;28;44768;-83
2022/01/09 09:24:24;;;;;;;;;0.50;0.50;;;;;5.51;100.00;100234.47;5079420;27;45420;-82
2022/01/09 09:26:50;;;;;;;;;1.00;1.00;;;;;5.42;100.00;100230.56;5077547;27;45514;-84
2022/01/09 09:29:15;;;;;;;;;0.25;0.25;;;;;5.39;100.00;100242.13;5078942;28;44768;-83
2022/01/09 09:31:40;;;;;;;;;2.75;1.00;;;;;5.36;100.00;100244.06;5079018;27;45417;-84
2022/01/09 09:34:08;;;;;;;;;5.25;1.00;;;;;5.36;100.00;100250.16;5061331;28;46675;-82
2022/01/09 09:36:34;;;;;;;;;3.20;1.00;;;;;5.32;100.00;100256.56;5059125;28;45285;-83
2022/01/09 09:39:00;;;;;;;;;5.40;2.00;;;;;5.29;100.00;100267.25;5068993;28;45386;-83
2022/01/09 09:41:26;;;;;;;;;2.25;2.25;;;;;5.30;100.00;100260.19;5079551;28;45328;-84
2022/01/09 09:43:52;;;;;;;;;4.00;2.00;;;;;5.37;100.00;100253.69;5078313;28;45071;-83
2022/01/09 09:46:21;;;;;;;;;4.00;1.40;;;;;5.47;100.00;100252.25;5072712;27;45345;-84
2022/01/09 09:48:47;;;;;;;;;3.40;3.40;;;;;5.54;100.00;100245.69;5068141;28;44668;-82
2022/01/09 09:51:12;;;;;;;;;2.25;2.25;;;;;5.61;100.00;100246.25;5083123;27;44651;-84
2022/01/09 09:53:37;;;;;;;;;2.50;2.00;;;;;5.71;100.00;100260.63;5081666;27;44920;-83
2022/01/09 09:56:03;;;;;;;;;4.75;2.50;;;;;5.77;100.00;100262.06;5079978;27;44681;-82
2022/01/09 09:58:28;;;;;;;;;2.00;2.00;;;;;5.85;100.00;100265.97;5078584;27;44697;-83
2022/01/09 10:00:55;;;;;;;;;5.25;3.25;;;;;5.90;100.00;100263.94;5078974;27;44889;-83
2022/01/09 10:03:30;;;;;;;;;4.00;2.00;;;;;5.88;100.00;100267.59;5083100;28;45654;-83
2022/01/09 10:05:55;;;;;;;;;4.00;4.00;;;;;5.86;100.00;100265.03;5083683;27;44740;-83
2022/01/09 10:08:21;;;;;;;;;5.00;2.00;;;;;5.91;100.00;100268.31;5076224;27;44804;-84
2022/01/09 10:10:46;;;;;;;;;4.00;2.00;;;;;5.89;100.00;100264.00;5058509;27;44897;-84
2022/01/09 10:13:12;;;;;;;;;2.50;2.00;;;;;5.85;100.00;100273.88;5067881;27;45160;-82
2022/01/09 10:15:52;;;;;;;;;2.75;2.00;;;;;5.87;100.00;100260.63;5068976;28;44881;-82
2022/01/09 10:18:46;;;;;;;;;2.20;2.00;;;;;5.91;100.00;100247.22;5062907;28;45429;-84
2022/01/09 10:21:16;;;;;;;;;0.00;0.00;;;;;5.93;100.00;100252.41;5066352;28;45204;-83
2022/01/09 10:24:04;;;;;;;;;1.80;1.80;;;;;5.89;100.00;100249.03;5073943;28;45402;-85
2022/01/09 10:26:35;;;;;;;;;1.00;1.00;;;;;5.89;100.00;100251.66;5067496;28;44759;-81
2022/01/09 10:29:03;;;;;;;;;2.60;1.60;;;;;5.91;100.00;100255.13;5079666;27;44887;-83
2022/01/09 10:31:28;;;;;;;;;4.50;2.00;;;;;5.91;100.00;100255.13;5064882;28;44872;-84
2022/01/09 10:34:00;;;;;;;;;11.75;8.00;;;;;5.92;100.00;100254.19;5056509;28;45343;-84
2022/01/09 10:36:51;;;;;;;;;2.20;2.20;;;;;5.91;100.00;100265.66;5067531;28;44833;-83
2022/01/09 10:39:28;;;;;;;;;2.00;2.00;;;;;5.92;100.00;100277.91;5075863;28;45277;-84
2022/01/09 10:41:59;;;;;;;;;3.00;3.00;;;;;5.92;100.00;100283.19;5079856;27;44719;-85
2022/01/09 10:44:27;;;;;;;;;2.40;2.40;;;;;5.92;100.00;100271.78;5059141;28;45465;-85
2022/01/09 10:47:05;;;;;;;;;1.00;1.00;;;;;5.93;100.00;100274.34;5067550;27;44775;-82
2022/01/09 10:49:42;;;;;;;;;3.80;2.00;;;;;5.90;100.00;100274.50;5063094;28;45068;-82
2022/01/09 10:52:18;;;;;;;;;3.50;1.00;;;;;5.88;100.00;100267.59;5073677;27;44888;-84
2022/01/09 10:54:46;;;;;;;;;3.40;1.00;;;;;5.95;100.00;100265.47;5058931;28;45122;-83
2022/01/09 10:57:22;;;;;;;;;0.00;0.00;;;;;5.87;100.00;100263.25;5067989;28;45409;-82
2022/01/09 10:59:49;;;;;;;;;0.40;0.00;;;;;5.81;100.00;100269.72;5060734;28;44939;-82
2022/01/09 11:02:15;;;;;;;;;1.00;0.80;;;;;5.73;100.00;100265.78;5061700;28;45467;-84
2022/01/09 11:04:45;;;;;;;;;0.00;0.00;;;;;5.63;100.00;100278.63;5060491;28;45948;-83
2022/01/09 11:07:11;;;;;;;;;0.00;0.00;;;;;5.62;100.00;100288.31;5072654;28;44807;-83
2022/01/09 11:09:38;;;;;;;;;4.00;0.00;;;;;5.59;100.00;100274.44;5076334;28;45268;-85
2022/01/09 11:12:06;;;;;;;;;0.60;0.60;;;;;5.55;100.00;100278.16;5065384;27;44891;-84
2022/01/09 11:14:36;;;;;;;;;0.00;0.00;;;;;5.35;100.00;100261.63;5081215;27;45295;-82
2022/01/09 11:17:05;;;;;;;;;0.60;0.00;;;;;5.28;100.00;100286.63;5073042;27;44907;-84
2022/01/09 11:19:32;;;;;;;;;0.40;0.40;;;;;5.18;100.00;100303.81;5080853;27;44878;-83
2022/01/09 11:21:59;;;;;;;;;1.00;1.00;;;;;5.10;100.00;100301.56;5064221;27;45659;-83
2022/01/09 11:24:31;;;;;;;;;3.25;1.00;;;;;5.04;100.00;100312.44;5059176;28;46741;-84
2022/01/09 11:27:06;;;;;;;;;0.00;0.00;;;;;5.00;100.00;100304.75;5071295;28;45326;-82